createdAt,value
2022-09-05T00:01:33.114Z,16.88
2022-09-05T00:04:24.511Z,16.83
2022-09-05T00:07:05.384Z,16.73
2022-09-05T00:10:09.044Z,16.64
2022-09-05T00:12:41.253Z,16.67
2022-09-05T00:15:27.115Z,16.74
2022-09-05T00:22:09.510Z,16.63
2022-09-05T00:24:27.422Z,16.55
2022-09-05T00:25:14.874Z,16.56
2022-09-05T00:27:55.538Z,16.53
2022-09-05T00:31:08.909Z,16.40
2022-09-05T00:33:32.087Z,16.37
2022-09-05T00:36:33.614Z,16.47
2022-09-05T00:39:09.003Z,16.46
2022-09-05T00:41:40.518Z,16.29
2022-09-05T00:44:15.759Z,16.19
2022-09-05T00:46:57.238Z,16.24
2022-09-05T00:49:34.830Z,16.26
2022-09-05T00:52:11.708Z,16.28
2022-09-05T00:55:24.635Z,16.32
2022-09-05T00:58:40.505Z,16.24
2022-09-05T01:01:34.301Z,16.17
2022-09-05T01:04:28.866Z,16.17
2022-09-05T01:07:31.227Z,16.16
2022-09-05T01:10:23.690Z,16.11
2022-09-05T01:13:16.031Z,16.01
2022-09-05T01:15:58.318Z,15.97
2022-09-05T01:18:48.075Z,15.96
2022-09-05T01:22:02.466Z,15.98
2022-09-05T01:25:04.609Z,16.00
2022-09-05T01:29:13.165Z,15.89
2022-09-05T01:30:53.701Z,15.84
2022-09-05T01:33:43.997Z,15.75
2022-09-05T01:36:53.649Z,15.68
2022-09-05T01:40:11.469Z,15.63
2022-09-05T01:42:40.423Z,15.63
2022-09-05T01:45:23.113Z,15.62
2022-09-05T01:48:06.406Z,15.57
2022-09-05T01:50:49.461Z,15.58
2022-09-05T01:53:34.809Z,15.52
2022-09-05T01:56:40.568Z,15.50
2022-09-05T01:59:41.096Z,15.41
2022-09-05T02:02:34.397Z,15.41
2022-09-05T02:05:49.018Z,15.45
2022-09-05T02:08:51.034Z,15.40
2022-09-05T02:11:35.532Z,15.27
2022-09-05T02:14:27.082Z,15.33
2022-09-05T02:17:47.904Z,15.40
2022-09-05T02:20:24.357Z,15.36
2022-09-05T02:23:04.850Z,15.25
2022-09-05T02:26:05.758Z,15.20
2022-09-05T02:28:47.581Z,15.15
2022-09-05T02:31:25.677Z,15.01
2022-09-05T02:34:02.608Z,15.00
2022-09-05T02:36:43.971Z,15.02
2022-09-05T02:45:00.082Z,15.04
2022-09-05T02:45:06.538Z,15.08
2022-09-05T02:45:26.646Z,15.09
2022-09-05T02:48:15.750Z,15.09
2022-09-05T02:57:27.633Z,14.99
2022-09-05T02:57:29.659Z,15.03
2022-09-05T02:58:05.936Z,14.89
2022-09-05T03:00:23.582Z,14.92
2022-09-05T03:03:21.700Z,14.94
2022-09-05T03:06:00.391Z,14.99
2022-09-05T03:09:08.052Z,14.95
2022-09-05T03:12:42.628Z,14.94
2022-09-05T03:16:36.538Z,14.86
2022-09-05T03:20:09.818Z,14.80
2022-09-05T03:23:40.109Z,14.78
2022-09-05T03:26:50.923Z,14.74
2022-09-05T03:30:13.135Z,14.70
2022-09-05T03:33:47.944Z,14.67
2022-09-05T03:37:05.287Z,14.66
2022-09-05T03:40:30.197Z,14.58
2022-09-05T03:43:58.948Z,14.52
2022-09-05T03:47:01.743Z,14.51
2022-09-05T03:54:55.709Z,14.49
2022-09-05T03:57:16.382Z,14.43
2022-09-05T03:57:27.546Z,14.39
2022-09-05T04:00:07.803Z,14.42
2022-09-05T04:07:14.945Z,14.43
2022-09-05T04:08:16.190Z,14.35
2022-09-05T04:08:47.558Z,14.32
2022-09-05T04:11:30.709Z,14.34
2022-09-05T04:14:04.162Z,14.36
2022-09-05T04:16:48.793Z,14.32
2022-09-05T04:19:30.039Z,14.34
2022-09-05T04:22:19.820Z,14.27
2022-09-05T04:25:03.597Z,14.29
2022-09-05T04:27:48.905Z,14.25
2022-09-05T04:30:41.278Z,14.20
2022-09-05T04:33:36.651Z,14.22
2022-09-05T04:36:22.997Z,14.18
2022-09-05T04:39:27.359Z,14.19
2022-09-05T04:42:11.554Z,14.16
2022-09-05T04:44:55.674Z,14.13
2022-09-05T04:47:31.625Z,14.17
2022-09-05T04:50:12.292Z,14.16
2022-09-05T04:53:13.934Z,14.11
2022-09-05T04:55:51.052Z,14.05
2022-09-05T04:59:55.307Z,14.07
2022-09-05T05:06:08.153Z,14.05
2022-09-05T05:06:16.465Z,14.07
2022-09-05T05:07:25.110Z,14.07
2022-09-05T05:10:45.325Z,14.11
2022-09-05T05:17:53.994Z,14.09
2022-09-05T05:18:12.649Z,14.09
2022-09-05T05:19:04.909Z,14.07
2022-09-05T05:21:36.879Z,14.06
2022-09-05T05:24:16.616Z,14.07
2022-09-05T05:26:56.714Z,14.08
2022-09-05T05:29:36.561Z,14.11
2022-09-05T05:32:08.939Z,14.19
2022-09-05T05:34:47.284Z,14.18
2022-09-05T05:37:23.562Z,14.18
2022-09-05T05:40:09.148Z,14.18
2022-09-05T05:42:41.483Z,14.17
2022-09-05T05:45:20.749Z,14.19
2022-09-05T05:47:56.122Z,14.16
2022-09-05T05:50:41.476Z,14.15
2022-09-05T05:53:42.969Z,14.15
2022-09-05T05:56:42.744Z,14.12
2022-09-05T05:59:57.553Z,14.13
2022-09-05T06:03:25.189Z,14.18
2022-09-05T06:06:30.815Z,14.24
2022-09-05T06:14:50.765Z,14.25
2022-09-05T06:14:56.698Z,14.25
2022-09-05T06:17:02.719Z,14.33
2022-09-05T06:22:05.700Z,14.38
2022-09-05T06:23:50.781Z,14.41
2022-09-05T06:27:11.062Z,14.49
2022-09-05T06:29:58.662Z,14.57
2022-09-05T06:32:58.213Z,14.68
2022-09-05T06:35:49.163Z,14.74
2022-09-05T06:38:48.335Z,14.80
2022-09-05T06:41:35.016Z,14.88
2022-09-05T06:44:42.837Z,14.94
2022-09-05T06:47:23.810Z,14.97
2022-09-05T06:50:26.721Z,14.98
2022-09-05T06:53:55.153Z,15.00
2022-09-05T06:56:50.579Z,15.02
2022-09-05T07:00:17.585Z,15.09
2022-09-05T07:03:32.297Z,15.16
2022-09-05T07:06:19.737Z,15.24
2022-09-05T07:08:57.355Z,15.30
2022-09-05T07:11:38.431Z,15.36
2022-09-05T07:14:20.024Z,15.42
2022-09-05T07:16:54.930Z,15.49
2022-09-05T07:19:31.796Z,15.55
2022-09-05T07:22:47.010Z,15.64
2022-09-05T07:25:26.334Z,15.72
2022-09-05T07:28:28.302Z,15.78
2022-09-05T07:30:55.380Z,15.85
2022-09-05T07:33:31.220Z,15.91
2022-09-05T07:36:12.604Z,15.99
2022-09-05T07:38:54.830Z,16.05
2022-09-05T07:41:32.147Z,16.12
2022-09-05T07:44:09.757Z,16.19
2022-09-05T07:46:42.644Z,16.26
2022-09-05T07:49:18.666Z,16.33
2022-09-05T07:56:54.262Z,16.40
2022-09-05T07:57:04.125Z,16.47
2022-09-05T07:57:51.978Z,16.54
2022-09-05T08:00:26.873Z,16.62
2022-09-05T08:03:02.223Z,16.70
2022-09-05T08:05:42.433Z,16.77
2022-09-05T08:08:20.237Z,16.84
2022-09-05T08:11:24.576Z,16.93
2022-09-05T08:14:05.319Z,17.02
2022-09-05T08:16:48.036Z,17.11
2022-09-05T08:19:54.989Z,17.19
2022-09-05T08:22:35.879Z,17.27
2022-09-05T08:25:19.481Z,17.34
2022-09-05T08:28:07.611Z,17.44
2022-09-05T08:30:46.197Z,17.53
2022-09-05T08:33:24.622Z,17.62
2022-09-05T08:36:00.894Z,17.71
2022-09-05T08:38:40.506Z,17.82
2022-09-05T08:41:25.925Z,17.94
2022-09-05T08:46:44.799Z,18.05
2022-09-05T08:47:43.375Z,18.16
2022-09-05T08:50:57.118Z,18.32
2022-09-05T08:53:46.603Z,18.42
2022-09-05T08:56:24.236Z,18.51
2022-09-05T08:59:32.394Z,18.62
2022-09-05T09:03:03.967Z,18.73
2022-09-05T09:06:16.046Z,18.86
2022-09-05T09:09:19.562Z,18.97
2022-09-05T09:11:59.262Z,19.09
2022-09-05T09:14:54.419Z,19.19
2022-09-05T09:17:38.358Z,19.30
2022-09-05T09:20:45.267Z,19.43
2022-09-05T09:23:34.339Z,19.52
2022-09-05T09:26:15.937Z,19.63
2022-09-05T09:28:58.224Z,19.72
2022-09-05T09:31:55.922Z,19.82
2022-09-05T09:34:49.266Z,19.97
2022-09-05T09:38:14.840Z,20.09
2022-09-05T09:41:30.938Z,20.23
2022-09-05T09:45:21.659Z,20.45
2022-09-05T09:48:57.087Z,20.55
2022-09-05T09:51:54.530Z,20.63
2022-09-05T09:55:20.911Z,20.74
2022-09-05T09:58:30.193Z,20.87
2022-09-05T10:01:36.454Z,20.99
2022-09-05T10:10:36.084Z,21.08
2022-09-05T10:10:54.673Z,21.30
2022-09-05T10:11:53.768Z,21.50
2022-09-05T10:15:25.425Z,21.69
2022-09-05T10:18:46.115Z,21.89
2022-09-05T10:25:37.291Z,22.16
2022-09-05T10:28:09.229Z,22.27
2022-09-05T10:32:52.018Z,22.37
2022-09-05T10:35:13.750Z,22.49
2022-09-05T10:36:55.529Z,22.61
2022-09-05T10:39:29.941Z,22.71
2022-09-05T10:42:05.128Z,22.86
2022-09-05T10:44:41.175Z,22.99
2022-09-05T10:47:28.840Z,23.11
2022-09-05T10:50:16.554Z,23.17
2022-09-05T10:53:10.553Z,23.26
2022-09-05T10:55:57.453Z,23.31
2022-09-05T11:02:15.784Z,23.35
2022-09-05T11:02:21.038Z,23.41
2022-09-05T11:04:51.873Z,23.45
2022-09-05T11:07:37.645Z,23.50
2022-09-05T11:10:15.159Z,23.55
2022-09-05T11:13:18.181Z,23.62
2022-09-05T11:16:13.545Z,23.71
2022-09-05T11:18:57.412Z,23.77
2022-09-05T11:22:04.179Z,23.84
2022-09-05T11:24:57.445Z,23.90
2022-09-05T11:27:36.489Z,23.94
2022-09-05T11:30:29.963Z,23.98
2022-09-05T11:39:19.261Z,24.07
2022-09-05T11:39:54.295Z,24.22
2022-09-05T11:41:01.025Z,24.33
2022-09-05T11:44:25.501Z,24.40
2022-09-05T11:47:44.423Z,24.47
2022-09-05T11:51:00.317Z,24.58
2022-09-05T11:53:57.584Z,24.63
2022-09-05T11:57:32.476Z,24.66
2022-09-05T12:00:32.459Z,24.70
2022-09-05T12:03:59.874Z,24.75
2022-09-05T12:07:31.923Z,24.79
2022-09-05T12:10:47.856Z,24.88
2022-09-05T12:13:40.705Z,24.90
2022-09-05T12:16:27.332Z,24.95
2022-09-05T12:19:20.164Z,25.10
2022-09-05T12:22:29.301Z,25.20
2022-09-05T12:27:38.041Z,25.26
2022-09-05T12:29:33.601Z,25.30
2022-09-05T12:33:18.859Z,25.37
2022-09-05T12:36:11.065Z,25.41
2022-09-05T12:40:25.374Z,25.44
2022-09-05T12:41:36.334Z,25.51
2022-09-05T12:44:40.185Z,25.61
2022-09-05T12:46:56.542Z,25.67
2022-09-05T12:49:39.271Z,25.74
2022-09-05T12:52:42.481Z,25.81
2022-09-05T12:55:24.154Z,25.89
2022-09-05T13:02:58.703Z,25.95
2022-09-05T13:03:12.650Z,26.03
2022-09-05T13:04:16.780Z,26.03
2022-09-05T13:06:48.014Z,26.08
2022-09-05T13:09:30.837Z,26.11
2022-09-05T13:14:47.485Z,26.13
2022-09-05T13:15:23.304Z,26.17
2022-09-05T13:18:04.096Z,26.19
2022-09-05T13:20:40.545Z,26.24
2022-09-05T13:23:22.738Z,26.33
2022-09-05T13:26:04.194Z,26.48
2022-09-05T13:28:57.192Z,26.60
2022-09-05T13:37:55.341Z,26.75
2022-09-05T13:38:15.467Z,26.85
2022-09-05T13:38:47.524Z,26.89
2022-09-05T13:41:00.145Z,26.90
2022-09-05T13:43:36.836Z,26.94
2022-09-05T13:46:17.373Z,26.95
2022-09-05T13:51:51.059Z,26.96
2022-09-05T13:54:50.974Z,27.03
2022-09-05T13:57:35.436Z,27.06
2022-09-05T14:01:02.109Z,27.07
2022-09-05T14:08:18.373Z,27.04
2022-09-05T14:11:50.105Z,27.02
2022-09-05T14:17:53.975Z,27.05
2022-09-05T14:20:43.740Z,27.11
2022-09-05T14:23:20.521Z,27.13
2022-09-05T14:25:57.728Z,27.18
2022-09-05T14:28:39.076Z,27.24
2022-09-05T14:36:58.555Z,27.26
2022-09-05T14:37:42.237Z,27.31
2022-09-05T14:38:05.651Z,27.30
2022-09-05T14:41:28.325Z,27.33
2022-09-05T14:44:49.131Z,27.36
2022-09-05T14:48:06.536Z,27.36
2022-09-05T14:51:24.382Z,27.38
2022-09-05T14:54:02.303Z,27.39
2022-09-05T15:00:59.950Z,27.41
2022-09-05T15:02:51.877Z,27.44
2022-09-05T15:02:57.410Z,27.47
2022-09-05T15:05:41.298Z,27.47
2022-09-05T15:08:33.255Z,27.47
2022-09-05T15:12:18.562Z,27.48
2022-09-05T15:14:04.466Z,27.48
2022-09-05T15:16:43.861Z,27.49
2022-09-05T15:19:13.973Z,27.51
2022-09-05T15:21:42.590Z,27.52
2022-09-05T15:24:23.593Z,27.49
2022-09-05T15:26:56.332Z,27.52
2022-09-05T15:29:28.070Z,27.52
2022-09-05T15:32:17.770Z,27.54
2022-09-05T15:34:46.775Z,27.56
2022-09-05T15:37:37.068Z,27.58
2022-09-05T15:40:23.397Z,27.59
2022-09-05T15:42:58.962Z,27.58
2022-09-05T15:45:32.761Z,27.62
2022-09-05T15:48:21.830Z,27.68
2022-09-05T15:50:56.935Z,27.74
2022-09-05T15:53:29.281Z,27.76
2022-09-05T15:56:19.101Z,27.83
2022-09-05T15:58:55.109Z,27.85
2022-09-05T16:01:58.293Z,27.89
2022-09-05T16:10:27.036Z,27.94
2022-09-05T16:10:30.494Z,27.94
2022-09-05T16:10:49.146Z,27.93
2022-09-05T16:13:15.121Z,27.88
2022-09-05T16:19:29.383Z,27.84
2022-09-05T16:23:13.513Z,27.81
2022-09-05T16:23:23.939Z,27.79
2022-09-05T16:24:59.439Z,27.78
2022-09-05T16:27:51.555Z,27.76
2022-09-05T16:30:27.139Z,27.74
2022-09-05T16:33:08.082Z,27.72
2022-09-05T16:35:44.878Z,27.66
2022-09-05T16:38:48.846Z,27.62
2022-09-05T16:41:25.348Z,27.56
2022-09-05T16:44:01.066Z,27.52
2022-09-05T16:46:40.585Z,27.46
2022-09-05T16:49:18.644Z,27.40
2022-09-05T16:52:09.736Z,27.32
2022-09-05T16:54:56.911Z,27.24
2022-09-05T16:57:32.991Z,27.14
2022-09-05T17:00:03.801Z,27.09
2022-09-05T17:02:44.335Z,27.01
2022-09-05T17:05:29.162Z,26.92
2022-09-05T17:08:27.016Z,26.83
2022-09-05T17:11:04.902Z,26.76
2022-09-05T17:13:48.069Z,26.67
2022-09-05T17:16:28.378Z,26.58
2022-09-05T17:19:02.121Z,26.53
2022-09-05T17:23:29.300Z,26.41
2022-09-05T17:29:24.242Z,26.12
2022-09-05T17:29:24.356Z,26.27
2022-09-05T17:33:47.782Z,25.92
2022-09-05T17:36:39.246Z,25.80
2022-09-05T17:39:44.357Z,25.73
2022-09-05T17:42:37.453Z,25.63
2022-09-05T17:45:19.472Z,25.55
2022-09-05T17:47:51.316Z,25.44
2022-09-05T17:50:51.360Z,25.38
2022-09-05T17:53:26.394Z,25.35
2022-09-05T17:56:28.431Z,25.33
2022-09-05T17:59:09.357Z,25.26
2022-09-05T18:01:39.033Z,25.15
2022-09-05T18:04:17.569Z,25.11
2022-09-05T18:06:59.798Z,25.01
2022-09-05T18:10:12.559Z,24.92
2022-09-05T18:13:12.920Z,24.83
2022-09-05T18:16:13.143Z,24.71
2022-09-05T18:19:32.681Z,24.63
2022-09-05T18:21:53.179Z,24.54
2022-09-05T18:24:37.986Z,24.48
2022-09-05T18:27:37.904Z,24.41
2022-09-05T18:30:28.832Z,24.30
2022-09-05T18:33:54.687Z,24.15
2022-09-05T18:36:36.036Z,24.10
2022-09-05T18:39:44.124Z,23.96
2022-09-05T18:42:33.281Z,23.80
2022-09-05T18:45:15.510Z,23.78
2022-09-05T18:47:52.945Z,23.75
2022-09-05T18:50:32.937Z,23.63
2022-09-05T18:53:09.518Z,23.53
2022-09-05T18:56:13.789Z,23.50
2022-09-05T18:59:09.705Z,23.42
2022-09-05T19:01:46.121Z,23.31
2022-09-05T19:04:40.905Z,23.21
2022-09-05T19:07:22.445Z,23.16
2022-09-05T19:10:35.054Z,23.07
2022-09-05T19:13:00.319Z,23.03
2022-09-05T19:15:35.262Z,23.02
2022-09-05T19:18:26.401Z,22.98
2022-09-05T19:21:16.653Z,22.91
2022-09-05T19:23:52.731Z,22.85
2022-09-05T19:26:22.827Z,22.79
2022-09-05T19:36:46.395Z,22.78
2022-09-05T19:36:51.933Z,22.66
2022-09-05T19:37:09.976Z,22.73
2022-09-05T19:37:44.545Z,22.56
2022-09-05T19:47:24.879Z,22.46
2022-09-05T19:47:45.141Z,22.50
2022-09-05T19:47:48.705Z,22.46
2022-09-05T19:49:18.896Z,22.43
2022-09-05T19:51:47.920Z,22.37
2022-09-05T19:54:29.148Z,22.38
2022-09-05T19:57:02.854Z,22.35
2022-09-05T19:59:39.047Z,22.31
2022-09-05T20:02:20.234Z,22.25
2022-09-05T20:04:53.995Z,22.22
2022-09-05T20:07:26.474Z,22.13
2022-09-05T20:09:57.863Z,22.12
2022-09-05T20:12:34.368Z,22.06
2022-09-05T20:15:24.168Z,22.02
2022-09-05T20:17:55.668Z,21.94
2022-09-05T20:20:28.323Z,21.82
2022-09-05T20:23:03.124Z,21.81
2022-09-05T20:25:38.108Z,21.79
2022-09-05T20:28:12.789Z,21.70
2022-09-05T20:30:46.171Z,21.61
2022-09-05T20:33:23.171Z,21.54
2022-09-05T20:43:08.668Z,21.49
2022-09-05T20:43:25.123Z,21.44
2022-09-05T20:43:25.330Z,21.43
2022-09-05T20:45:03.589Z,21.38
2022-09-05T20:53:56.883Z,21.34
2022-09-05T20:54:21.741Z,21.31
2022-09-05T20:54:27.072Z,21.31
2022-09-05T20:56:23.938Z,21.31
2022-09-05T20:58:55.743Z,21.23
2022-09-05T21:01:27.818Z,21.18
2022-09-05T21:03:59.557Z,21.12
2022-09-05T21:06:33.343Z,21.01
2022-09-05T21:09:25.175Z,20.96
2022-09-05T21:11:56.422Z,20.92
2022-09-05T21:14:29.811Z,20.94
2022-09-05T21:17:15.134Z,20.92
2022-09-05T21:19:54.097Z,20.90
2022-09-05T21:22:32.906Z,20.88
2022-09-05T21:25:26.607Z,20.80
2022-09-05T21:28:32.687Z,20.76
2022-09-05T21:31:15.864Z,20.74
2022-09-05T21:33:47.240Z,20.70
2022-09-05T21:36:17.144Z,20.65
2022-09-05T21:38:46.099Z,20.66
2022-09-05T21:41:18.103Z,20.67
2022-09-05T21:47:34.700Z,20.63
2022-09-05T21:47:48.295Z,20.61
2022-09-05T21:49:35.319Z,20.57
2022-09-05T21:52:07.307Z,20.49
2022-09-05T21:59:18.831Z,20.48
2022-09-05T21:59:27.216Z,20.46
2022-09-05T22:00:24.158Z,20.47
2022-09-05T22:02:53.444Z,20.49
2022-09-05T22:05:25.655Z,20.52
2022-09-05T22:07:55.828Z,20.50
2022-09-05T22:10:30.875Z,20.46
2022-09-05T22:13:13.623Z,20.33
2022-09-05T22:15:42.722Z,20.28
2022-09-05T22:18:17.751Z,20.18
2022-09-05T22:21:32.144Z,20.10
2022-09-05T22:23:46.360Z,20.08
2022-09-05T22:26:18.424Z,20.10
2022-09-05T22:28:49.006Z,20.12
2022-09-05T22:31:18.794Z,20.08
2022-09-05T22:33:50.788Z,20.12
2022-09-05T22:36:22.131Z,20.12
2022-09-05T22:38:51.045Z,20.07
2022-09-05T22:41:29.876Z,19.99
2022-09-05T22:43:59.004Z,19.92
2022-09-05T22:46:28.546Z,19.92
2022-09-05T22:48:57.886Z,19.95
2022-09-05T22:51:27.945Z,19.96
2022-09-05T22:53:57.973Z,19.95
2022-09-05T22:56:35.149Z,19.90
2022-09-05T22:59:04.847Z,19.80
2022-09-05T23:01:34.486Z,19.76
2022-09-05T23:04:03.735Z,19.75
2022-09-05T23:06:35.755Z,19.71
2022-09-05T23:09:04.527Z,19.68
2022-09-05T23:11:33.559Z,19.70
2022-09-05T23:14:02.344Z,19.73
2022-09-05T23:16:31.640Z,19.74
2022-09-05T23:19:00.335Z,19.68
2022-09-05T23:21:28.913Z,19.65
2022-09-05T23:23:59.318Z,19.58
2022-09-05T23:26:29.827Z,19.56
2022-09-05T23:28:59.543Z,19.57
2022-09-05T23:31:28.637Z,19.58
2022-09-05T23:33:58.240Z,19.57
2022-09-05T23:36:26.874Z,19.56
2022-09-05T23:38:55.450Z,19.59
2022-09-05T23:41:26.148Z,19.51
2022-09-05T23:43:54.753Z,19.49
2022-09-05T23:46:23.410Z,19.50
2022-09-05T23:48:52.252Z,19.51
2022-09-05T23:51:21.217Z,19.51
2022-09-05T23:53:49.740Z,19.48
2022-09-05T23:56:18.837Z,19.39
2022-09-05T23:58:49.083Z,19.42
